FW0494 Weather Reports


time (UTC)temp
C
wind
direction
speed
KPH
gust
KPH
rain 1hr
cm
rain 24hr
cm
rain mn
cm
humidity
%
barometer
mb
20260507080019 14 37 0.0 0.0 0.00 0.00 0.00 78 1019.0
20260507074528 14 37 0.0 0.0 0.00 0.00 0.00 77 1019.0
20260507073036 15 34 0.0 0.0 0.00 0.00 0.00 76 1019.0
20260507071545 15 36 0.0 0.0 0.00 0.00 0.00 76 1019.1
20260507070018 15 32 0.0 0.0 0.00 0.00 0.00 75 1019.2
20260507064526 15 38 0.0 3.2 0.00 0.00 0.00 74 1019.2
20260507063030 15 36 4.8 4.8 0.00 0.00 0.00 74 1019.3
20260507061535 15 38 0.0 0.0 0.00 0.00 0.00 72 1019.3
20260507060019 16 36 0.0 0.0 0.00 0.00 0.00 72 1019.2
20260507054529 16 36 0.0 0.0 0.00 0.00 0.00 71 1019.2
20260507053019 16 38 1.6 6.4 0.00 0.00 0.00 70 1019.1
20260507051527 16 38 0.0 4.8 0.00 0.00 0.00 69 1019.2
20260507050022 17 38 3.2 8.0 0.00 0.00 0.00 68 1019.0
20260507044534 17 31 3.2 6.4 0.00 0.00 0.00 67 1019.0
20260507043048 18 38 3.2 4.8 0.00 0.00 0.00 64 1018.8
20260507041536 18 35 3.2 4.8 0.00 0.00 0.00 64 1018.7
20260507040024 18 35 1.6 4.8 0.00 0.00 0.00 62 1018.5
20260507034533 19 38 3.2 6.4 0.00 0.00 0.00 61 1018.5
20260507033024 20 35 1.6 9.7 0.00 0.00 0.00 60 1018.2
20260507031519 20 34 0.0 4.8 0.00 0.00 0.00 58 1018.0
20260507030031 20 36 1.6 8.0 0.00 0.00 0.00 56 1017.7
20260507024533 21 36 3.2 11.3 0.00 0.00 0.00 55 1017.5
20260507023022 21 37 6.4 11.3 0.00 0.00 0.00 54 1017.3
20260507021530 21 35 8.0 14.5 0.00 0.00 0.00 52 1017.3
20260507020043 22 35 6.4 16.1 0.00 0.00 0.00 51 1017.3
20260507014548 22 38 11.3 17.7 0.00 0.00 0.00 50 1017.1
20260507013021 23 38 11.3 19.3 0.00 0.00 0.00 48 1016.9
20260507011532 23 38 17.7 24.1 0.00 0.00 0.00 46 1016.9
20260507010024 24 35 9.7 19.3 0.00 0.00 0.00 43 1016.6
20260507004536 25 35 6.4 16.1 0.00 0.00 0.00 42 1016.6
20260507003023 25 36 6.4 14.5 0.00 0.00 0.00 40 1016.6
20260507001518 25 37 6.4 11.3 0.00 0.00 0.00 41 1016.6
20260507000033 25 36 8.0 12.9 0.00 0.00 0.00 40 1016.4
20260506234525 25 36 6.4 14.5 0.00 0.00 0.00 40 1016.5
20260506233020 25 38 6.4 16.1 0.00 0.00 0.00 40 1016.5
20260506231532 25 38 8.0 14.5 0.00 0.00 0.00 39 1016.6
20260506230033 25 37 4.8 9.7 0.00 0.00 0.00 39 1016.6
20260506224527 25 36 4.8 14.5 0.00 0.00 0.00 39 1016.7
20260506223016 25 35 4.8 17.7 0.00 0.00 0.00 38 1016.9
20260506221526 25 32 6.4 17.7 0.00 0.00 0.00 39 1017.2
20260506220057 24 35 4.8 19.3 0.00 0.00 0.00 41 1017.3
20260506214552 24 32 8.0 14.5 0.00 0.00 0.00 42 1017.4
20260506213019 23 38 6.4 16.1 0.00 0.00 0.00 42 1017.7
20260506211535 23 34 6.4 14.5 0.00 0.00 0.00 42 1017.9
20260506210017 23 32 3.2 14.5 0.00 0.00 0.00 41 1018.1
20260506204543 23 36 6.4 14.5 0.00 0.00 0.00 42 1018.2
20260506203035 23 37 1.6 14.5 0.00 0.00 0.00 43 1018.2
20260506201521 22 35 3.2 17.7 0.00 0.00 0.00 44 1018.5
20260506200039 22 36 6.4 9.7 0.00 0.00 0.00 47 1018.7
20260506194525 21 36 4.8 11.3 0.00 0.00 0.00 47 1018.9
20260506193019 21 38 4.8 12.9 0.00 0.00 0.00 46 1019.2
20260506191550 21 35 3.2 8.0 0.00 0.00 0.00 48 1019.2
20260506190027 20 34 8.0 16.1 0.00 0.00 0.00 47 1019.3
20260506184523 20 38 3.2 14.5 0.00 0.00 0.00 50 1019.3
20260506183035 20 32 3.2 11.3 0.00 0.00 0.00 50 1019.6
20260506181542 19 32 6.4 12.9 0.00 0.00 0.00 51 1019.9
20260506180033 18 36 6.4 12.9 0.00 0.00 0.00 51 1020.0
20260506174522 18 32 4.8 8.0 0.00 0.00 0.00 53 1019.8
20260506173034 18 32 6.4 12.9 0.00 0.00 0.00 53 1019.8
20260506171523 18 31 8.0 16.1 0.00 0.00 0.00 53 1019.8
20260506170019 17 35 0.0 8.0 0.00 0.00 0.00 56 1019.9
20260506164531 16 34 3.2 6.4 0.00 0.00 0.00 58 1020.0
20260506163025 16 36 3.2 11.3 0.00 0.00 0.00 59 1019.8
20260506161521 15 35 0.0 8.0 0.00 0.00 0.00 60 1019.8
20260506160033 15 35 3.2 9.7 0.00 0.00 0.00 61 1019.8
20260506154519 15 32 1.6 8.0 0.00 0.00 0.00 64 1019.7
20260506153053 14 36 1.6 3.2 0.00 0.00 0.00 66 1019.8
20260506151521 13 34 4.8 6.4 0.00 0.00 0.00 69 1019.9
20260506150019 13 34 0.0 0.0 0.00 0.00 0.00 74 1019.8
20260506144526 12 35 0.0 0.0 0.00 0.00 0.00 79 1020.1
20260506143035 11 38 0.0 0.0 0.00 0.00 0.00 83 1019.9
20260506141526 10 35 0.0 0.0 0.00 0.00 0.00 85 1020.0
20260506140018 9 37 0.0 0.0 0.00 0.00 0.00 85 1019.8
20260506134531 8 38 0.0 0.0 0.00 0.00 0.00 85 1019.7
20260506133023 8 35 0.0 0.0 0.00 0.00 0.00 85 1019.5
20260506131545 8 37 0.0 0.0 0.00 0.00 0.00 84 1019.2
20260506130024 8 32 0.0 0.0 0.00 0.25 0.00 84 1019.1
20260506124535 8 38 0.0 0.0 0.00 0.25 0.00 83 1019.0
20260506123026 8 35 3.2 4.8 0.00 0.25 0.00 83 1018.9
20260506121530 8 38 0.0 0.0 0.00 0.25 0.00 82 1018.9
20260506120023 8 36 0.0 0.0 0.00 0.28 0.00 82 1018.7
20260506114519 8 34 0.0 0.0 0.00 0.28 0.00 81 1018.7
20260506113032 8 37 0.0 0.0 0.00 0.28 0.00 81 1018.7
20260506111526 8 38 0.0 0.0 0.00 0.28 0.00 81 1018.7
20260506110022 8 38 0.0 0.0 0.00 0.28 0.00 80 1018.6
20260506104554 8 38 0.0 0.0 0.00 0.28 0.00 80 1018.5
20260506103030 9 38 0.0 0.0 0.00 0.28 0.00 79 1018.6
20260506101524 9 38 0.0 0.0 0.00 0.28 0.00 79 1018.6
20260506100036 10 38 0.0 0.0 0.00 0.30 0.00 79 1018.6
20260506094526 10 38 0.0 0.0 0.00 0.30 0.00 79 1018.7
20260506093019 10 35 0.0 0.0 0.00 0.30 0.00 79 1018.7
20260506091531 10 38 0.0 0.0 0.00 0.30 0.00 79 1018.7
20260506090048 11 36 0.0 0.0 0.00 0.30 0.00 78 1018.7
20260506084522 11 38 0.0 0.0 0.00 0.30 0.00 79 1019.0
20260506083030 11 38 0.0 0.0 0.00 0.30 0.00 78 1018.9
20260506081524 11 34 0.0 0.0 0.00 0.30 0.00 78 1019.1